createdAt,value
2022-12-20T00:01:02.011Z,1.56
2022-12-20T00:03:29.953Z,1.56
2022-12-20T00:05:58.903Z,1.56
2022-12-20T00:08:26.849Z,1.61
2022-12-20T00:10:54.660Z,1.62
2022-12-20T00:13:22.489Z,1.58
2022-12-20T00:15:50.401Z,1.64
2022-12-20T00:18:19.685Z,1.63
2022-12-20T00:20:47.590Z,1.65
2022-12-20T00:23:15.349Z,1.59
2022-12-20T00:25:43.188Z,1.52
2022-12-20T00:28:11.056Z,1.51
2022-12-20T00:30:38.977Z,1.54
2022-12-20T00:33:06.885Z,1.51
2022-12-20T00:35:36.096Z,1.51
2022-12-20T00:38:04.012Z,1.56
2022-12-20T00:40:31.863Z,1.53
2022-12-20T00:42:59.913Z,1.60
2022-12-20T00:45:27.762Z,1.51
2022-12-20T00:47:55.647Z,1.48
2022-12-20T00:50:23.529Z,1.55
2022-12-20T00:52:52.797Z,1.57
2022-12-20T00:55:20.634Z,1.55
2022-12-20T00:57:48.510Z,1.51
2022-12-20T01:00:17.462Z,1.55
2022-12-20T01:02:45.389Z,1.55
2022-12-20T01:05:13.372Z,1.50
2022-12-20T01:07:41.145Z,1.50
2022-12-20T01:10:12.173Z,1.47
2022-12-20T01:12:40.027Z,1.51
2022-12-20T01:15:09.209Z,1.51
2022-12-20T01:17:38.039Z,1.54
2022-12-20T01:20:07.514Z,1.57
2022-12-20T01:22:35.612Z,1.61
2022-12-20T01:25:03.490Z,1.61
2022-12-20T01:27:32.767Z,1.59
2022-12-20T01:30:00.701Z,1.61
2022-12-20T01:32:28.569Z,1.65
2022-12-20T01:34:56.462Z,1.66
2022-12-20T01:37:24.293Z,1.63
2022-12-20T01:39:52.165Z,1.68
2022-12-20T01:42:20.382Z,1.66
2022-12-20T01:45:01.379Z,1.65
2022-12-20T01:47:33.400Z,1.67
2022-12-20T01:50:04.240Z,1.65
2022-12-20T01:52:36.988Z,1.65
2022-12-20T01:55:11.175Z,1.68
2022-12-20T01:57:45.722Z,1.67
2022-12-20T02:00:16.950Z,1.67
2022-12-20T02:02:47.568Z,1.68
2022-12-20T02:05:17.611Z,1.67
2022-12-20T02:07:49.562Z,1.72
2022-12-20T02:10:19.997Z,1.74
2022-12-20T02:12:49.623Z,1.68
2022-12-20T02:15:31.878Z,1.72
2022-12-20T02:18:15.102Z,1.67
2022-12-20T02:21:04.206Z,1.69
2022-12-20T02:24:07.846Z,1.61
2022-12-20T02:26:58.834Z,1.61
2022-12-20T02:29:35.325Z,1.59
2022-12-20T02:32:10.342Z,1.55
2022-12-20T02:34:38.910Z,1.58
2022-12-20T02:37:07.327Z,1.58
2022-12-20T02:39:38.473Z,1.58
2022-12-20T02:42:08.547Z,1.61
2022-12-20T02:44:57.213Z,1.57
2022-12-20T02:47:32.020Z,1.55
2022-12-20T02:50:00.783Z,1.53
2022-12-20T02:52:31.122Z,1.52
2022-12-20T02:55:00.946Z,1.50
2022-12-20T02:57:39.485Z,1.48
2022-12-20T03:00:11.607Z,1.49
2022-12-20T03:02:59.941Z,1.48
2022-12-20T03:05:29.121Z,1.51
2022-12-20T03:07:57.275Z,1.48
2022-12-20T03:10:26.873Z,1.45
2022-12-20T03:12:54.854Z,1.49
2022-12-20T03:15:23.065Z,1.43
2022-12-20T03:17:55.880Z,1.44
2022-12-20T03:20:24.182Z,1.51
2022-12-20T03:22:52.499Z,1.52
2022-12-20T03:25:20.496Z,1.49
2022-12-20T03:27:48.672Z,1.53
2022-12-20T03:30:18.973Z,1.58
2022-12-20T03:32:46.893Z,1.57
2022-12-20T03:35:16.723Z,1.61
2022-12-20T03:37:44.986Z,1.59
2022-12-20T03:40:14.193Z,1.59
2022-12-20T03:42:42.125Z,1.59
2022-12-20T03:45:10.999Z,1.58
2022-12-20T03:47:39.041Z,1.63
2022-12-20T03:50:08.233Z,1.61
2022-12-20T03:52:38.170Z,1.61
2022-12-20T03:55:07.243Z,1.60
2022-12-20T03:57:43.944Z,1.60
2022-12-20T04:00:31.641Z,1.63
2022-12-20T04:03:18.465Z,1.62
2022-12-20T04:05:46.654Z,1.67
2022-12-20T04:08:15.956Z,1.66
2022-12-20T04:10:58.013Z,1.64
2022-12-20T04:13:28.955Z,1.72
2022-12-20T04:16:00.640Z,1.65
2022-12-20T04:18:31.979Z,1.65
2022-12-20T04:21:01.876Z,1.63
2022-12-20T04:23:33.448Z,1.64
2022-12-20T04:26:01.792Z,1.67
2022-12-20T04:28:32.569Z,1.67
2022-12-20T04:31:01.289Z,1.65
2022-12-20T04:33:31.102Z,1.67
2022-12-20T04:35:59.361Z,1.68
2022-12-20T04:38:28.714Z,1.68
2022-12-20T04:40:58.372Z,1.64
2022-12-20T04:43:29.041Z,1.64
2022-12-20T04:46:00.000Z,1.68
2022-12-20T04:48:55.627Z,1.61
2022-12-20T04:51:18.595Z,1.66
2022-12-20T04:53:48.683Z,1.62
2022-12-20T04:56:31.008Z,1.60
2022-12-20T04:59:06.163Z,1.62
2022-12-20T05:01:35.173Z,1.66
2022-12-20T05:04:03.841Z,1.66
2022-12-20T05:06:35.744Z,1.68
2022-12-20T05:09:04.302Z,1.74
2022-12-20T05:11:35.341Z,1.73
2022-12-20T05:14:06.860Z,1.72
2022-12-20T05:16:34.945Z,1.72
2022-12-20T05:19:04.639Z,1.69
2022-12-20T05:21:55.625Z,1.74
2022-12-20T05:24:40.824Z,1.77
2022-12-20T05:27:33.093Z,1.83
2022-12-20T05:30:01.507Z,1.83
2022-12-20T05:32:30.447Z,1.81
2022-12-20T05:34:58.467Z,1.84
2022-12-20T05:37:26.583Z,1.87
2022-12-20T05:39:55.825Z,1.87
2022-12-20T05:42:26.515Z,1.91
2022-12-20T05:44:55.820Z,1.95
2022-12-20T05:47:24.020Z,1.99
2022-12-20T05:50:01.561Z,2.00
2022-12-20T05:52:35.079Z,2.00
2022-12-20T05:55:04.237Z,1.98
2022-12-20T05:57:32.647Z,1.94
2022-12-20T06:00:04.647Z,1.90
2022-12-20T06:02:33.913Z,1.90
2022-12-20T06:05:04.965Z,1.84
2022-12-20T06:07:32.914Z,1.87
2022-12-20T06:10:01.777Z,1.86
2022-12-20T06:12:46.804Z,1.86
2022-12-20T06:15:16.439Z,1.88
2022-12-20T06:17:44.301Z,1.87
2022-12-20T06:20:13.562Z,1.88
2022-12-20T06:22:45.202Z,1.89
2022-12-20T06:25:15.318Z,1.90
2022-12-20T06:27:43.666Z,1.94
2022-12-20T06:30:17.120Z,1.89
2022-12-20T06:32:54.634Z,1.88
2022-12-20T06:35:22.510Z,1.89
2022-12-20T06:37:52.119Z,1.92
2022-12-20T06:40:20.119Z,1.97
2022-12-20T06:42:48.294Z,1.96
2022-12-20T06:45:17.905Z,1.99
2022-12-20T06:47:46.234Z,1.99
2022-12-20T06:50:14.169Z,2.09
2022-12-20T06:52:42.661Z,2.06
2022-12-20T06:55:11.374Z,2.05
2022-12-20T06:57:41.429Z,2.11
2022-12-20T07:00:12.714Z,2.13
2022-12-20T07:02:41.935Z,2.20
2022-12-20T07:05:10.183Z,2.30
2022-12-20T07:07:44.609Z,2.31
2022-12-20T07:10:13.317Z,2.41
2022-12-20T07:12:47.457Z,2.45
2022-12-20T07:15:16.225Z,2.54
2022-12-20T07:17:45.740Z,2.54
2022-12-20T07:20:14.733Z,2.63
2022-12-20T07:22:42.882Z,2.62
2022-12-20T07:25:12.176Z,2.70
2022-12-20T07:27:40.114Z,2.71
2022-12-20T07:30:09.212Z,2.73
2022-12-20T07:32:37.372Z,2.74
2022-12-20T07:35:07.408Z,2.78
2022-12-20T07:37:35.248Z,2.80
2022-12-20T07:40:03.299Z,2.96
2022-12-20T07:42:35.739Z,2.92
2022-12-20T07:45:07.569Z,2.90
2022-12-20T07:47:36.141Z,2.86
2022-12-20T07:50:04.413Z,2.91
2022-12-20T07:52:35.224Z,3.06
2022-12-20T07:55:06.673Z,2.97
2022-12-20T07:57:39.809Z,3.04
2022-12-20T08:00:09.955Z,3.01
2022-12-20T08:02:45.300Z,3.03
2022-12-20T08:05:13.641Z,3.01
2022-12-20T08:07:44.604Z,3.02
2022-12-20T08:10:15.389Z,2.99
2022-12-20T08:12:45.138Z,3.00
2022-12-20T08:15:13.138Z,3.05
2022-12-20T08:17:41.140Z,3.10
2022-12-20T08:20:09.830Z,3.09
2022-12-20T08:22:37.718Z,3.15
2022-12-20T08:25:08.333Z,3.16
2022-12-20T08:27:36.353Z,3.13
2022-12-20T08:30:04.929Z,3.18
2022-12-20T08:32:32.876Z,3.22
2022-12-20T08:35:00.866Z,3.25
2022-12-20T08:37:28.822Z,3.32
2022-12-20T08:39:56.800Z,3.31
2022-12-20T08:42:26.027Z,3.34
2022-12-20T08:44:54.049Z,3.38
2022-12-20T08:47:21.935Z,3.41
2022-12-20T08:49:49.865Z,3.45
2022-12-20T08:52:17.712Z,3.47
2022-12-20T08:54:45.609Z,3.39
2022-12-20T08:57:13.680Z,3.41
2022-12-20T08:59:42.871Z,3.39
2022-12-20T09:02:11.035Z,3.37
2022-12-20T09:04:39.172Z,3.40
2022-12-20T09:07:07.098Z,3.43
2022-12-20T09:09:35.507Z,3.47
2022-12-20T09:12:03.403Z,3.51
2022-12-20T09:14:31.280Z,3.52
2022-12-20T09:17:00.511Z,3.55
2022-12-20T09:19:28.746Z,3.53
2022-12-20T09:21:56.863Z,3.54
2022-12-20T09:24:24.766Z,3.57
2022-12-20T09:26:52.657Z,3.61
2022-12-20T09:29:26.960Z,3.61
2022-12-20T09:31:59.171Z,3.65
2022-12-20T09:34:28.523Z,3.76
2022-12-20T09:36:56.484Z,3.84
2022-12-20T09:39:24.390Z,3.87
2022-12-20T09:41:52.259Z,3.86
2022-12-20T09:44:24.582Z,3.92
2022-12-20T09:46:57.086Z,3.94
2022-12-20T09:49:30.471Z,4.01
2022-12-20T09:52:26.556Z,4.05
2022-12-20T09:55:00.612Z,4.06
2022-12-20T09:57:35.284Z,4.11
2022-12-20T10:00:03.590Z,4.14
2022-12-20T10:05:38.800Z,4.20
2022-12-20T10:08:17.365Z,4.24
2022-12-20T10:10:55.904Z,4.25
2022-12-20T10:13:39.034Z,4.24
2022-12-20T10:16:19.585Z,4.27
2022-12-20T10:18:59.838Z,4.31
2022-12-20T10:21:42.827Z,4.24
2022-12-20T10:24:15.416Z,4.29
2022-12-20T10:26:43.605Z,4.29
2022-12-20T10:29:11.470Z,4.32
2022-12-20T10:31:40.491Z,4.35
2022-12-20T10:34:09.076Z,4.33
2022-12-20T10:36:39.010Z,4.40
2022-12-20T10:39:08.702Z,4.42
2022-12-20T10:41:49.301Z,4.42
2022-12-20T10:44:21.346Z,4.45
2022-12-20T10:46:53.910Z,4.50
2022-12-20T10:49:27.892Z,4.55
2022-12-20T10:51:58.997Z,4.57
2022-12-20T10:54:32.529Z,4.61
2022-12-20T10:57:02.700Z,4.65
2022-12-20T10:59:35.526Z,4.65
2022-12-20T11:02:23.271Z,4.67
2022-12-20T11:05:00.829Z,4.68
2022-12-20T11:07:33.344Z,4.72
2022-12-20T11:10:02.909Z,4.75
2022-12-20T11:12:30.807Z,4.79
2022-12-20T11:15:10.163Z,4.80
2022-12-20T11:17:41.043Z,4.89
2022-12-20T11:20:32.041Z,4.88
2022-12-20T11:23:14.846Z,4.95
2022-12-20T11:26:02.227Z,5.02
2022-12-20T11:28:47.208Z,5.01
2022-12-20T11:31:25.856Z,5.09
2022-12-20T11:34:04.581Z,5.07
2022-12-20T11:36:45.540Z,5.09
2022-12-20T11:39:26.794Z,5.09
2022-12-20T11:42:04.802Z,5.12
2022-12-20T11:44:58.867Z,5.11
2022-12-20T11:48:01.069Z,5.09
2022-12-20T11:50:43.440Z,5.11
2022-12-20T11:53:17.767Z,5.13
2022-12-20T11:55:53.202Z,5.12
2022-12-20T11:58:26.744Z,5.15
2022-12-20T12:00:59.917Z,5.19
2022-12-20T12:03:33.701Z,5.22
2022-12-20T12:06:05.806Z,5.22
2022-12-20T12:08:42.287Z,5.22
2022-12-20T12:11:40.353Z,5.23
2022-12-20T12:14:07.457Z,5.30
2022-12-20T12:16:38.947Z,5.26
2022-12-20T12:19:12.392Z,5.25
2022-12-20T12:21:45.167Z,5.24
2022-12-20T12:24:20.325Z,5.27
2022-12-20T12:26:49.643Z,5.29
2022-12-20T12:29:19.559Z,5.31
2022-12-20T12:31:52.513Z,5.28
2022-12-20T12:34:37.347Z,5.29
2022-12-20T12:37:34.715Z,5.31
2022-12-20T12:40:30.250Z,5.30
2022-12-20T12:46:16.355Z,5.32
2022-12-20T12:48:49.995Z,5.31
2022-12-20T12:51:26.108Z,5.27
2022-12-20T12:53:56.317Z,5.32
2022-12-20T12:56:45.582Z,5.27
2022-12-20T12:59:50.331Z,5.27
2022-12-20T13:02:50.954Z,5.23
2022-12-20T13:05:34.548Z,5.29
2022-12-20T13:08:02.867Z,5.26
2022-12-20T13:11:04.014Z,5.23
2022-12-20T13:13:32.283Z,5.21
2022-12-20T13:16:48.784Z,5.20
2022-12-20T13:19:18.457Z,5.19
2022-12-20T13:21:48.490Z,5.20
2022-12-20T13:24:50.597Z,5.18
2022-12-20T13:27:32.941Z,5.17
2022-12-20T13:30:22.065Z,5.18
2022-12-20T13:33:24.224Z,5.08
2022-12-20T13:36:03.068Z,5.02
2022-12-20T13:38:53.510Z,5.03
2022-12-20T13:41:40.765Z,5.02
2022-12-20T13:44:36.901Z,4.99
2022-12-20T13:47:18.484Z,4.99
2022-12-20T13:49:46.593Z,5.00
2022-12-20T13:52:22.922Z,4.97
2022-12-20T13:54:54.521Z,4.92
2022-12-20T13:57:30.582Z,4.94
2022-12-20T14:00:06.392Z,4.89
2022-12-20T14:02:40.987Z,4.86
2022-12-20T14:05:17.402Z,4.83
2022-12-20T14:07:49.604Z,4.85
2022-12-20T14:10:21.937Z,4.85
2022-12-20T14:12:53.807Z,4.84
2022-12-20T14:15:27.594Z,4.80
2022-12-20T14:17:56.073Z,4.83
2022-12-20T14:20:29.053Z,4.83
2022-12-20T14:23:05.974Z,4.86
2022-12-20T14:25:39.661Z,4.85
2022-12-20T14:28:26.461Z,4.84
2022-12-20T14:30:55.712Z,4.82
2022-12-20T14:33:30.250Z,4.79
2022-12-20T14:35:59.940Z,4.84
2022-12-20T14:38:32.281Z,4.75
2022-12-20T14:41:00.159Z,4.72
2022-12-20T14:43:33.399Z,4.66
2022-12-20T14:46:19.099Z,4.66
2022-12-20T14:48:47.523Z,4.66
2022-12-20T14:51:21.807Z,4.74
2022-12-20T14:53:53.425Z,4.75
2022-12-20T14:56:31.523Z,4.70
2022-12-20T14:59:14.461Z,4.80
2022-12-20T15:01:44.408Z,4.70
2022-12-20T15:04:25.555Z,4.71
2022-12-20T15:06:53.931Z,4.65
2022-12-20T15:09:23.281Z,4.58
2022-12-20T15:11:52.658Z,4.57
2022-12-20T15:14:33.154Z,4.60
2022-12-20T15:17:01.077Z,4.61
2022-12-20T15:19:29.044Z,4.63
2022-12-20T15:21:57.510Z,4.61
2022-12-20T15:24:29.141Z,4.63
2022-12-20T15:26:57.325Z,4.65
2022-12-20T15:29:27.074Z,4.59
2022-12-20T15:32:02.312Z,4.58
2022-12-20T15:34:35.215Z,4.58
2022-12-20T15:37:04.706Z,4.58
2022-12-20T15:39:34.895Z,4.63
2022-12-20T15:42:06.696Z,4.54
2022-12-20T15:44:36.005Z,4.49
2022-12-20T15:47:04.110Z,4.46
2022-12-20T15:49:33.778Z,4.45
2022-12-20T15:52:01.641Z,4.39
2022-12-20T15:54:32.707Z,4.47
2022-12-20T15:57:07.447Z,4.42
2022-12-20T16:02:25.095Z,4.37
2022-12-20T16:04:54.159Z,4.40
2022-12-20T16:07:22.505Z,4.39
2022-12-20T16:09:50.315Z,4.40
2022-12-20T16:12:23.658Z,4.36
2022-12-20T16:14:51.709Z,4.36
2022-12-20T16:17:19.570Z,4.30
2022-12-20T16:19:48.223Z,4.36
2022-12-20T16:22:17.774Z,4.36
2022-12-20T16:24:45.896Z,4.35
2022-12-20T16:27:13.982Z,4.35
2022-12-20T16:29:43.256Z,4.34
2022-12-20T16:32:15.621Z,4.38
2022-12-20T16:34:43.749Z,4.40
2022-12-20T16:37:12.890Z,4.45
2022-12-20T16:39:41.334Z,4.51
2022-12-20T16:42:14.941Z,4.72
2022-12-20T16:44:45.470Z,4.78
2022-12-20T16:47:14.545Z,4.82
2022-12-20T16:49:51.311Z,4.86
2022-12-20T16:52:22.029Z,4.86
2022-12-20T16:54:50.408Z,4.89
2022-12-20T16:57:18.345Z,4.95
2022-12-20T16:59:47.595Z,4.95
2022-12-20T17:02:24.628Z,4.97
2022-12-20T17:04:52.547Z,5.01
2022-12-20T17:07:20.435Z,5.03
2022-12-20T17:12:33.464Z,5.01
2022-12-20T17:15:04.082Z,5.04
2022-12-20T17:17:31.916Z,5.09
2022-12-20T17:20:00.129Z,5.30
2022-12-20T17:22:28.133Z,5.20
2022-12-20T17:24:56.130Z,5.26
2022-12-20T17:27:24.056Z,5.26
2022-12-20T17:29:52.187Z,5.20
2022-12-20T17:32:23.415Z,5.23
2022-12-20T17:34:52.083Z,5.28
2022-12-20T17:37:20.945Z,5.30
2022-12-20T17:39:49.015Z,5.28
2022-12-20T17:42:17.655Z,5.33
2022-12-20T17:44:46.704Z,5.30
2022-12-20T17:47:14.720Z,5.30
2022-12-20T17:49:43.983Z,5.30
2022-12-20T17:52:14.870Z,5.27
2022-12-20T17:54:43.323Z,5.25
2022-12-20T17:57:14.974Z,5.27
2022-12-20T17:59:43.413Z,5.25
2022-12-20T18:02:20.840Z,5.22
2022-12-20T18:04:50.823Z,5.22
2022-12-20T18:07:18.898Z,5.28
2022-12-20T18:09:47.812Z,5.30
2022-12-20T18:12:15.817Z,5.30
2022-12-20T18:14:43.793Z,5.26
2022-12-20T18:17:11.992Z,5.36
2022-12-20T18:19:40.769Z,5.36
2022-12-20T18:22:09.937Z,5.35
2022-12-20T18:24:37.905Z,5.27
2022-12-20T18:27:05.824Z,5.24
2022-12-20T18:29:33.962Z,5.20
2022-12-20T18:32:02.021Z,5.20
2022-12-20T18:34:30.127Z,5.19
2022-12-20T18:36:57.952Z,5.16
2022-12-20T18:39:27.173Z,5.13
2022-12-20T18:41:55.127Z,5.08
2022-12-20T18:44:22.984Z,5.05
2022-12-20T18:46:50.844Z,5.15
2022-12-20T18:49:19.069Z,5.13
2022-12-20T18:51:46.986Z,5.09
2022-12-20T18:54:15.247Z,5.08
2022-12-20T18:56:44.414Z,5.08
2022-12-20T18:59:13.066Z,5.08
2022-12-20T19:01:42.139Z,5.04
2022-12-20T19:04:11.270Z,5.04
2022-12-20T19:06:39.829Z,5.06
2022-12-20T19:09:33.964Z,5.03
2022-12-20T19:12:03.190Z,5.04
2022-12-20T19:14:31.286Z,5.02
2022-12-20T19:16:59.632Z,4.94
2022-12-20T19:19:27.687Z,4.91
2022-12-20T19:21:55.554Z,4.92
2022-12-20T19:24:23.476Z,4.96
2022-12-20T19:26:51.313Z,4.92
2022-12-20T19:29:20.520Z,4.86
2022-12-20T19:31:48.774Z,4.83
2022-12-20T19:34:16.632Z,4.86
2022-12-20T19:36:45.968Z,4.87
2022-12-20T19:39:15.965Z,4.89
2022-12-20T19:41:50.673Z,4.88
2022-12-20T19:44:29.354Z,4.86
2022-12-20T19:46:57.304Z,4.86
2022-12-20T19:49:25.207Z,4.88
2022-12-20T19:51:53.070Z,4.88
2022-12-20T19:54:20.943Z,4.86
2022-12-20T19:56:48.756Z,4.88
2022-12-20T19:59:16.713Z,4.89
2022-12-20T20:01:46.155Z,4.89
2022-12-20T20:04:14.076Z,4.85
2022-12-20T20:06:41.948Z,4.86
2022-12-20T20:09:10.029Z,4.87
2022-12-20T20:11:38.193Z,4.90
2022-12-20T20:14:09.303Z,4.89
2022-12-20T20:16:37.451Z,4.86
2022-12-20T20:19:06.932Z,4.85
2022-12-20T20:21:36.323Z,4.86
2022-12-20T20:24:04.772Z,4.81
2022-12-20T20:26:32.721Z,4.81
2022-12-20T20:29:02.262Z,4.82
2022-12-20T20:31:30.530Z,4.89
2022-12-20T20:33:59.097Z,4.97
2022-12-20T20:36:29.777Z,4.96
2022-12-20T20:38:57.827Z,5.03
2022-12-20T20:41:25.768Z,5.02
2022-12-20T20:43:53.638Z,5.04
2022-12-20T20:46:21.566Z,5.20
2022-12-20T20:48:49.415Z,5.14
2022-12-20T20:51:17.337Z,5.24
2022-12-20T20:53:46.602Z,5.25
2022-12-20T20:56:14.501Z,5.26
2022-12-20T20:58:42.336Z,5.35
2022-12-20T21:01:11.718Z,5.36
2022-12-20T21:03:40.360Z,5.26
2022-12-20T21:08:58.645Z,5.25
2022-12-20T21:11:26.654Z,5.29
2022-12-20T21:13:55.049Z,5.31
2022-12-20T21:16:24.421Z,5.30
2022-12-20T21:18:52.606Z,5.29
2022-12-20T21:21:21.351Z,5.29
2022-12-20T21:23:49.567Z,5.26
2022-12-20T21:26:20.581Z,5.25
2022-12-20T21:28:48.414Z,5.23
2022-12-20T21:31:18.615Z,5.20
2022-12-20T21:33:47.016Z,5.19
2022-12-20T21:36:17.046Z,5.15
2022-12-20T21:38:50.205Z,5.14
2022-12-20T21:41:20.834Z,5.15
2022-12-20T21:43:48.697Z,5.13
2022-12-20T21:46:16.871Z,5.09
2022-12-20T21:48:45.562Z,5.09
2022-12-20T21:51:15.474Z,5.06
2022-12-20T21:53:44.512Z,5.02
2022-12-20T21:56:12.684Z,5.05
2022-12-20T21:58:42.284Z,5.01
2022-12-20T22:01:10.834Z,4.96
2022-12-20T22:03:39.437Z,4.92
2022-12-20T22:06:07.903Z,4.87
2022-12-20T22:08:35.808Z,4.85
2022-12-20T22:11:06.063Z,4.83
2022-12-20T22:13:40.695Z,4.76
2022-12-20T22:16:12.232Z,4.73
2022-12-20T22:18:41.023Z,4.71
2022-12-20T22:21:10.785Z,4.69
2022-12-20T22:23:39.478Z,4.68
2022-12-20T22:26:09.666Z,4.64
2022-12-20T22:28:38.211Z,4.60
2022-12-20T22:31:12.092Z,4.58
2022-12-20T22:33:41.438Z,4.55
2022-12-20T22:36:10.406Z,4.57
2022-12-20T22:38:38.289Z,4.57
2022-12-20T22:41:11.129Z,4.56
2022-12-20T22:43:41.053Z,4.57
2022-12-20T22:46:11.518Z,4.59
2022-12-20T22:48:40.491Z,4.59
2022-12-20T22:51:10.728Z,4.62
2022-12-20T22:53:38.747Z,4.64
2022-12-20T22:56:08.043Z,4.63
2022-12-20T22:58:36.703Z,4.66
2022-12-20T23:01:08.276Z,4.73
2022-12-20T23:03:38.212Z,4.76
2022-12-20T23:06:08.184Z,4.76
2022-12-20T23:08:38.028Z,4.79
2022-12-20T23:11:28.394Z,4.81
2022-12-20T23:14:13.618Z,4.78
2022-12-20T23:16:41.467Z,4.87
2022-12-20T23:19:10.660Z,4.83
2022-12-20T23:21:55.780Z,4.86
2022-12-20T23:24:23.837Z,4.89
2022-12-20T23:26:51.738Z,4.84
2022-12-20T23:29:19.579Z,4.85
2022-12-20T23:31:47.502Z,4.80
2022-12-20T23:34:16.874Z,4.82
2022-12-20T23:36:44.732Z,4.75
2022-12-20T23:39:12.638Z,4.75
2022-12-20T23:41:40.529Z,4.72
2022-12-20T23:44:08.506Z,4.70
2022-12-20T23:46:36.443Z,4.66
2022-12-20T23:49:04.377Z,4.65
2022-12-20T23:51:34.644Z,4.63
2022-12-20T23:54:02.617Z,4.63
2022-12-20T23:56:30.435Z,4.60
2022-12-20T23:58:58.412Z,4.62
